createdAt,value
2018-03-14T00:01:40.065Z,14.77
2018-03-14T00:04:07.543Z,15.88
2018-03-14T00:06:35.145Z,14.95
2018-03-14T00:09:03.374Z,15.20
2018-03-14T00:11:30.832Z,14.60
2018-03-14T00:13:58.321Z,14.38
2018-03-14T00:16:25.882Z,15.23
2018-03-14T00:18:54.121Z,23.55
2018-03-14T00:21:21.588Z,17.80
2018-03-14T00:23:49.061Z,16.80
2018-03-14T00:26:16.641Z,18.75
2018-03-14T00:28:45.367Z,17.30
2018-03-14T00:31:12.832Z,20.45
2018-03-14T00:33:40.309Z,21.08
2018-03-14T00:36:07.788Z,21.45
2018-03-14T00:38:35.258Z,17.30
2018-03-14T00:41:03.514Z,19.80
2018-03-14T00:43:30.984Z,15.13
2018-03-14T00:45:59.250Z,15.68
2018-03-14T00:48:26.803Z,21.60
2018-03-14T00:50:54.264Z,20.50
2018-03-14T00:53:21.733Z,19.05
2018-03-14T00:55:49.956Z,20.98
2018-03-14T00:58:17.453Z,21.87
2018-03-14T01:00:45.019Z,18.65
2018-03-14T01:03:12.576Z,19.87
2018-03-14T01:05:40.818Z,20.12
2018-03-14T01:08:08.308Z,20.23
2018-03-14T01:10:36.556Z,17.95
2018-03-14T01:13:04.043Z,17.23
2018-03-14T01:15:31.601Z,18.83
2018-03-14T01:17:59.078Z,18.17
2018-03-14T01:20:26.566Z,17.60
2018-03-14T01:22:54.073Z,20.92
2018-03-14T01:25:21.580Z,15.32
2018-03-14T01:27:49.052Z,21.98
2018-03-14T01:30:16.648Z,17.83
2018-03-14T01:32:44.886Z,17.65
2018-03-14T01:35:12.354Z,16.27
2018-03-14T01:37:39.826Z,17.73
2018-03-14T01:40:07.306Z,17.40
2018-03-14T01:42:35.666Z,14.23
2018-03-14T01:45:03.232Z,16.80
2018-03-14T01:47:31.462Z,23.67
2018-03-14T01:49:58.977Z,16.80
2018-03-14T01:52:26.445Z,12.52
2018-03-14T01:54:53.995Z,14.45
2018-03-14T01:57:21.470Z,18.70
2018-03-14T01:59:48.986Z,15.95
2018-03-14T02:02:16.540Z,17.73
2018-03-14T02:04:44.105Z,18.10
2018-03-14T02:07:12.382Z,14.23
2018-03-14T02:09:40.649Z,13.70
2018-03-14T02:12:08.225Z,12.63
2018-03-14T02:14:36.462Z,13.07
2018-03-14T02:17:03.946Z,14.73
2018-03-14T02:19:31.507Z,14.00
2018-03-14T02:21:59.066Z,19.62
2018-03-14T02:24:27.334Z,11.68
2018-03-14T02:26:55.606Z,16.35
2018-03-14T02:29:23.071Z,12.45
2018-03-14T02:31:50.627Z,11.88
2018-03-14T02:34:18.194Z,13.60
2018-03-14T02:36:58.445Z,10.73
2018-03-14T02:39:26.006Z,10.13
2018-03-14T02:41:54.241Z,11.52
2018-03-14T02:44:21.749Z,12.45
2018-03-14T02:46:49.978Z,9.70
2018-03-14T02:49:17.462Z,8.52
2018-03-14T02:51:45.027Z,10.82
2018-03-14T02:54:12.582Z,10.15
2018-03-14T02:56:40.139Z,8.45
2018-03-14T02:59:07.606Z,9.40
2018-03-14T03:01:35.069Z,8.95
2018-03-14T03:04:03.306Z,11.40
2018-03-14T03:06:30.768Z,11.77
2018-03-14T03:08:58.230Z,11.20
2018-03-14T03:11:25.807Z,12.52
2018-03-14T03:13:53.274Z,9.45
2018-03-14T03:16:21.646Z,11.40
2018-03-14T03:18:49.102Z,10.38
2018-03-14T03:21:16.582Z,9.50
2018-03-14T03:23:44.880Z,11.10
2018-03-14T03:26:12.341Z,17.45
2018-03-14T03:28:39.814Z,10.73
2018-03-14T03:31:07.283Z,10.27
2018-03-14T03:33:34.758Z,15.45
2018-03-14T03:36:02.249Z,12.20
2018-03-14T03:38:29.722Z,10.13
2018-03-14T03:40:57.230Z,12.60
2018-03-14T03:43:24.701Z,12.55
2018-03-14T03:45:52.925Z,12.30
2018-03-14T03:48:20.421Z,10.80
2018-03-14T03:50:47.978Z,10.18
2018-03-14T03:53:15.450Z,10.57
2018-03-14T03:55:43.673Z,11.48
2018-03-14T03:58:11.169Z,12.77
2018-03-14T04:00:38.736Z,11.05
2018-03-14T04:03:06.149Z,13.60
2018-03-14T04:05:33.605Z,16.20
2018-03-14T04:08:01.075Z,10.93
2018-03-14T04:10:28.535Z,12.05
2018-03-14T04:12:56.025Z,11.23
2018-03-14T04:15:24.258Z,10.35
2018-03-14T04:17:51.713Z,9.55
2018-03-14T04:20:19.182Z,10.15
2018-03-14T04:22:46.637Z,11.77
2018-03-14T04:25:14.098Z,9.63
2018-03-14T04:27:41.614Z,10.57
2018-03-14T04:30:09.077Z,11.57
2018-03-14T04:32:36.530Z,9.15
2018-03-14T04:35:03.998Z,9.98
2018-03-14T04:37:31.464Z,10.25
2018-03-14T04:39:58.923Z,9.73
2018-03-14T04:42:26.389Z,10.50
2018-03-14T04:44:53.961Z,12.60
2018-03-14T04:47:21.522Z,10.85
2018-03-14T04:49:49.758Z,11.73
2018-03-14T04:52:17.254Z,7.95
2018-03-14T04:54:44.815Z,9.13
2018-03-14T04:57:12.377Z,8.18
2018-03-14T04:59:39.938Z,8.52
2018-03-14T05:02:07.401Z,9.50
2018-03-14T05:04:35.669Z,10.25
2018-03-14T05:07:03.138Z,9.23
2018-03-14T05:09:31.361Z,10.52
2018-03-14T05:11:58.856Z,9.32
2018-03-14T05:14:26.333Z,12.73
2018-03-14T05:16:54.561Z,8.40
2018-03-14T05:19:22.062Z,7.87
2018-03-14T05:21:50.313Z,9.20
2018-03-14T05:24:17.770Z,10.80
2018-03-14T05:26:45.257Z,8.20
2018-03-14T05:29:12.786Z,9.55
2018-03-14T05:31:40.254Z,12.50
2018-03-14T05:34:07.709Z,9.48
2018-03-14T05:36:35.165Z,6.22
2018-03-14T05:39:02.823Z,11.73
2018-03-14T05:41:30.281Z,6.60
2018-03-14T05:43:57.793Z,13.05
2018-03-14T05:46:25.290Z,7.85
2018-03-14T05:48:52.761Z,9.05
2018-03-14T05:51:21.181Z,9.23
2018-03-14T05:53:48.736Z,11.35
2018-03-14T05:56:16.198Z,9.32
2018-03-14T05:58:43.677Z,9.55
2018-03-14T06:01:11.133Z,7.97
2018-03-14T06:03:38.613Z,10.20
2018-03-14T06:06:06.075Z,11.20
2018-03-14T06:08:33.529Z,11.27
2018-03-14T06:11:00.998Z,6.97
2018-03-14T06:13:29.259Z,8.02
2018-03-14T06:15:56.727Z,9.82
2018-03-14T06:18:24.958Z,11.40
2018-03-14T06:20:52.421Z,13.30
2018-03-14T06:23:19.883Z,7.30
2018-03-14T06:25:47.412Z,9.50
2018-03-14T06:28:14.916Z,10.10
2018-03-14T06:30:42.528Z,7.55
2018-03-14T06:33:10.038Z,12.00
2018-03-14T06:35:37.586Z,7.25
2018-03-14T06:38:05.043Z,10.75
2018-03-14T06:40:32.503Z,7.15
2018-03-14T06:42:59.971Z,10.32
2018-03-14T06:45:27.518Z,11.20
2018-03-14T06:47:55.082Z,10.30
2018-03-14T06:50:22.537Z,9.48
2018-03-14T06:52:50.001Z,10.15
2018-03-14T06:55:17.546Z,11.65
2018-03-14T06:57:45.013Z,10.20
2018-03-14T07:03:24.987Z,14.30
2018-03-14T07:06:07.090Z,12.05
2018-03-14T07:08:35.562Z,15.38
2018-03-14T07:11:03.641Z,9.63
2018-03-14T07:13:31.323Z,13.85
2018-03-14T07:15:58.857Z,16.83
2018-03-14T07:18:26.470Z,9.57
2018-03-14T07:20:54.025Z,10.45
2018-03-14T07:23:21.481Z,10.60
2018-03-14T07:25:49.065Z,10.70
2018-03-14T07:28:16.617Z,18.95
2018-03-14T07:30:44.162Z,9.43
2018-03-14T07:33:11.778Z,11.40
2018-03-14T07:35:39.330Z,13.50
2018-03-14T07:38:07.809Z,11.82
2018-03-14T07:40:35.394Z,16.95
2018-03-14T07:43:03.016Z,14.80
2018-03-14T07:45:30.578Z,20.00
2018-03-14T07:47:58.268Z,12.27
2018-03-14T07:50:26.598Z,12.05
2018-03-14T07:52:54.244Z,16.73
2018-03-14T07:55:21.818Z,12.70
2018-03-14T07:57:49.459Z,11.12
2018-03-14T08:00:17.070Z,12.63
2018-03-14T08:02:44.660Z,19.15
2018-03-14T08:05:12.223Z,18.17
2018-03-14T08:07:39.824Z,13.70
2018-03-14T08:10:07.385Z,18.75
2018-03-14T08:12:34.933Z,13.40
2018-03-14T08:15:02.512Z,13.35
2018-03-14T08:17:30.124Z,20.80
2018-03-14T08:19:57.691Z,21.62
2018-03-14T08:22:25.233Z,15.88
2018-03-14T08:24:52.787Z,13.48
2018-03-14T08:27:20.369Z,17.67
2018-03-14T08:29:47.981Z,18.75
2018-03-14T08:32:15.649Z,15.30
2018-03-14T08:34:43.967Z,16.23
2018-03-14T08:37:11.573Z,16.92
2018-03-14T08:39:39.141Z,18.00
2018-03-14T08:42:07.554Z,18.58
2018-03-14T08:44:35.163Z,16.12
2018-03-14T08:47:02.758Z,20.02
2018-03-14T08:49:30.428Z,15.57
2018-03-14T08:51:58.000Z,17.98
2018-03-14T08:54:25.566Z,22.23
2018-03-14T08:56:52.966Z,17.90
2018-03-14T08:59:21.231Z,28.10
2018-03-14T09:01:49.509Z,21.05
2018-03-14T09:04:17.745Z,17.67
2018-03-14T09:06:45.241Z,23.10
2018-03-14T09:09:12.722Z,18.80
2018-03-14T09:11:40.963Z,21.00
2018-03-14T09:14:08.446Z,19.08
2018-03-14T09:16:36.694Z,20.25
2018-03-14T09:19:04.269Z,17.65
2018-03-14T09:21:31.726Z,18.08
2018-03-14T09:23:59.310Z,16.27
2018-03-14T09:26:27.541Z,26.00
2018-03-14T09:28:55.001Z,17.55
2018-03-14T09:31:22.577Z,27.45
2018-03-14T09:33:50.042Z,18.95
2018-03-14T09:36:18.302Z,17.05
2018-03-14T09:38:45.766Z,18.15
2018-03-14T09:41:13.246Z,17.25
2018-03-14T09:43:41.501Z,18.52
2018-03-14T09:46:08.967Z,19.35
2018-03-14T09:48:37.230Z,26.92
2018-03-14T09:51:04.700Z,18.37
2018-03-14T09:53:32.958Z,14.65
2018-03-14T09:56:00.429Z,16.60
2018-03-14T09:58:28.742Z,14.98
2018-03-14T10:00:56.226Z,15.88
2018-03-14T10:03:23.695Z,10.68
2018-03-14T10:05:51.165Z,13.60
2018-03-14T10:08:18.640Z,16.08
2018-03-14T10:10:46.889Z,16.62
2018-03-14T10:13:14.348Z,17.45
2018-03-14T10:15:41.825Z,17.10
2018-03-14T10:18:10.100Z,18.55
2018-03-14T10:20:38.410Z,13.65
2018-03-14T10:23:05.866Z,12.35
2018-03-14T10:25:33.390Z,14.13
2018-03-14T10:28:00.829Z,14.40
2018-03-14T10:30:29.061Z,15.15
2018-03-14T10:32:56.533Z,15.25
2018-03-14T10:35:24.005Z,11.95
2018-03-14T10:37:51.477Z,15.18
2018-03-14T10:40:18.938Z,14.18
2018-03-14T10:42:46.420Z,19.08
2018-03-14T10:45:13.945Z,14.10
2018-03-14T10:47:41.435Z,14.95
2018-03-14T10:50:08.962Z,17.73
2018-03-14T10:52:36.436Z,16.23
2018-03-14T10:55:04.700Z,15.48
2018-03-14T10:57:32.201Z,18.15
2018-03-14T10:59:59.656Z,14.40
2018-03-14T11:02:31.685Z,20.77
2018-03-14T11:04:59.908Z,16.02
2018-03-14T11:07:27.401Z,16.45
2018-03-14T11:09:54.953Z,12.93
2018-03-14T11:12:22.413Z,16.12
2018-03-14T11:14:49.970Z,13.25
2018-03-14T11:17:17.553Z,15.50
2018-03-14T11:19:45.809Z,18.40
2018-03-14T11:22:13.306Z,13.52
2018-03-14T11:24:40.781Z,16.05
2018-03-14T11:27:08.246Z,17.60
2018-03-14T11:29:35.782Z,16.98
2018-03-14T11:32:03.293Z,13.65
2018-03-14T11:34:32.265Z,19.35
2018-03-14T11:36:59.799Z,17.02
2018-03-14T11:39:27.310Z,17.37
2018-03-14T11:41:54.870Z,18.70
2018-03-14T11:44:22.346Z,20.08
2018-03-14T11:46:50.564Z,14.93
2018-03-14T11:49:18.106Z,15.73
2018-03-14T11:51:45.571Z,18.52
2018-03-14T11:54:13.068Z,15.23
2018-03-14T11:56:40.734Z,16.75
2018-03-14T11:59:08.201Z,18.80
2018-03-14T12:01:36.518Z,13.30
2018-03-14T12:04:04.100Z,14.95
2018-03-14T12:06:32.087Z,15.68
2018-03-14T12:08:59.558Z,17.75
2018-03-14T12:11:27.926Z,13.62
2018-03-14T12:13:55.514Z,16.10
2018-03-14T12:16:23.575Z,13.23
2018-03-14T12:18:52.492Z,14.68
2018-03-14T12:21:20.342Z,17.10
2018-03-14T12:23:47.811Z,18.85
2018-03-14T12:26:15.420Z,16.62
2018-03-14T12:28:43.052Z,18.87
2018-03-14T12:31:10.631Z,22.60
2018-03-14T12:33:38.189Z,18.42
2018-03-14T12:36:05.658Z,13.93
2018-03-14T12:38:33.230Z,17.23
2018-03-14T12:41:00.681Z,15.90
2018-03-14T12:43:28.959Z,18.35
2018-03-14T12:45:57.233Z,18.50
2018-03-14T12:48:24.791Z,24.42
2018-03-14T12:50:52.247Z,17.42
2018-03-14T12:53:19.798Z,17.83
2018-03-14T12:55:47.314Z,18.62
2018-03-14T12:58:14.817Z,16.67
2018-03-14T13:00:43.049Z,18.90
2018-03-14T13:03:10.529Z,13.25
2018-03-14T13:05:37.989Z,14.15
2018-03-14T13:08:05.474Z,20.73
2018-03-14T13:10:32.944Z,18.58
2018-03-14T13:13:01.204Z,16.85
2018-03-14T13:15:28.995Z,15.77
2018-03-14T13:17:56.620Z,17.80
2018-03-14T13:20:24.911Z,22.73
2018-03-14T13:22:53.174Z,15.77
2018-03-14T13:25:20.650Z,18.55
2018-03-14T13:27:48.958Z,16.65
2018-03-14T13:30:16.563Z,15.52
2018-03-14T13:32:44.030Z,19.05
2018-03-14T13:35:11.528Z,18.17
2018-03-14T13:37:38.986Z,16.80
2018-03-14T13:40:06.450Z,17.20
2018-03-14T13:42:33.917Z,17.25
2018-03-14T13:45:01.410Z,13.30
2018-03-14T13:47:28.890Z,14.63
2018-03-14T13:49:57.110Z,13.05
2018-03-14T13:52:24.597Z,15.00
2018-03-14T13:54:52.098Z,21.20
2018-03-14T13:57:19.564Z,14.87
2018-03-14T13:59:47.070Z,17.27
2018-03-14T14:02:14.537Z,14.00
2018-03-14T14:04:42.766Z,15.52
2018-03-14T14:07:10.239Z,15.82
2018-03-14T14:09:37.693Z,14.45
2018-03-14T14:12:05.166Z,18.33
2018-03-14T14:14:32.626Z,18.85
2018-03-14T14:17:00.102Z,14.65
2018-03-14T14:19:28.338Z,12.85
2018-03-14T14:21:55.819Z,9.50
2018-03-14T14:24:23.269Z,8.82
2018-03-14T14:26:50.825Z,12.13
2018-03-14T14:29:18.289Z,12.50
2018-03-14T14:31:45.758Z,17.10
2018-03-14T14:34:14.050Z,10.85
2018-03-14T14:36:41.514Z,11.10
2018-03-14T14:39:08.969Z,13.95
2018-03-14T14:41:36.468Z,9.68
2018-03-14T14:44:03.921Z,14.38
2018-03-14T14:46:31.385Z,14.68
2018-03-14T14:48:58.857Z,15.23
2018-03-14T14:51:26.312Z,11.07
2018-03-14T14:53:53.873Z,12.15
2018-03-14T14:56:21.330Z,9.02
2018-03-14T14:58:48.902Z,12.60
2018-03-14T15:01:16.370Z,16.77
2018-03-14T15:03:44.625Z,11.65
2018-03-14T15:06:12.182Z,9.10
2018-03-14T15:08:39.662Z,10.10
2018-03-14T15:11:07.910Z,9.45
2018-03-14T15:13:35.385Z,10.98
2018-03-14T15:16:03.617Z,12.35
2018-03-14T15:18:31.097Z,10.40
2018-03-14T15:20:58.657Z,8.70
2018-03-14T15:23:26.217Z,10.02
2018-03-14T15:25:53.673Z,8.70
2018-03-14T15:28:21.177Z,6.80
2018-03-14T15:30:48.638Z,6.97
2018-03-14T15:33:16.104Z,10.10
2018-03-14T15:35:43.581Z,9.15
2018-03-14T15:38:11.041Z,10.35
2018-03-14T15:40:38.497Z,8.32
2018-03-14T15:43:06.028Z,8.18
2018-03-14T15:45:33.493Z,6.05
2018-03-14T15:48:00.997Z,9.55
2018-03-14T15:50:29.238Z,7.47
2018-03-14T15:52:56.709Z,9.15
2018-03-14T15:55:24.169Z,9.60
2018-03-14T15:57:51.629Z,6.18
2018-03-14T16:00:19.098Z,6.12
2018-03-14T16:02:48.117Z,7.78
2018-03-14T16:05:16.419Z,7.70
2018-03-14T16:07:43.881Z,11.20
2018-03-14T16:10:11.381Z,10.63
2018-03-14T16:12:38.858Z,13.20
2018-03-14T16:15:07.082Z,11.15
2018-03-14T16:17:34.554Z,11.02
2018-03-14T16:20:02.015Z,9.43
2018-03-14T16:22:29.479Z,8.25
2018-03-14T16:24:57.196Z,13.62
2018-03-14T16:27:24.814Z,8.63
2018-03-14T16:29:53.038Z,8.23
2018-03-14T16:32:20.505Z,7.12
2018-03-14T16:34:48.806Z,8.05
2018-03-14T16:37:16.279Z,9.13
2018-03-14T16:39:44.505Z,9.45
2018-03-14T16:42:11.979Z,8.40
2018-03-14T16:44:39.557Z,8.35
2018-03-14T16:47:07.036Z,13.65
2018-03-14T16:49:35.261Z,11.18
2018-03-14T16:52:02.755Z,8.25
2018-03-14T16:54:30.979Z,12.43
2018-03-14T16:56:58.479Z,11.60
2018-03-14T16:59:26.031Z,18.50
2018-03-14T17:01:54.314Z,11.70
2018-03-14T17:04:21.778Z,11.63
2018-03-14T17:06:50.025Z,11.95
2018-03-14T17:09:17.493Z,11.93
2018-03-14T17:11:45.058Z,11.70
2018-03-14T17:14:12.731Z,13.62
2018-03-14T17:16:40.964Z,12.85
2018-03-14T17:19:08.456Z,13.23
2018-03-14T17:21:35.926Z,11.38
2018-03-14T17:24:04.166Z,10.63
2018-03-14T17:26:31.650Z,10.57
2018-03-14T17:28:59.107Z,13.27
2018-03-14T17:31:27.352Z,10.85
2018-03-14T17:33:54.830Z,10.50
2018-03-14T17:36:22.336Z,8.65
2018-03-14T17:38:50.543Z,10.10
2018-03-14T17:41:18.005Z,10.05
2018-03-14T17:43:45.513Z,10.05
2018-03-14T17:46:13.775Z,12.65
2018-03-14T17:48:41.985Z,7.60
2018-03-14T17:51:09.442Z,8.90
2018-03-14T17:53:36.901Z,9.40
2018-03-14T17:56:04.649Z,8.85
2018-03-14T17:58:32.113Z,8.02
2018-03-14T18:00:59.592Z,12.37
2018-03-14T18:03:27.082Z,9.20
2018-03-14T18:05:55.306Z,10.60
2018-03-14T18:08:22.820Z,9.25
2018-03-14T18:10:50.366Z,11.43
2018-03-14T18:13:17.833Z,10.02
2018-03-14T18:15:46.066Z,10.55
2018-03-14T18:18:13.534Z,12.18
2018-03-14T18:20:41.133Z,14.45
2018-03-14T18:23:08.673Z,11.05
2018-03-14T18:25:36.194Z,11.18
2018-03-14T18:28:03.649Z,9.60
2018-03-14T18:30:31.142Z,14.48
2018-03-14T18:32:58.693Z,12.40
2018-03-14T18:35:26.254Z,10.77
2018-03-14T18:37:53.709Z,15.73
2018-03-14T18:40:21.173Z,9.55
2018-03-14T18:42:48.787Z,16.42
2018-03-14T18:45:16.302Z,13.27
2018-03-14T18:47:44.536Z,12.35
2018-03-14T18:50:12.010Z,13.85
2018-03-14T18:52:39.582Z,17.23
2018-03-14T18:55:07.919Z,17.85
2018-03-14T18:57:35.385Z,17.83
2018-03-14T19:00:02.857Z,16.95
2018-03-14T19:02:30.337Z,18.17
2018-03-14T19:04:58.569Z,16.00
2018-03-14T19:07:26.160Z,17.77
2018-03-14T19:09:53.716Z,20.20
2018-03-14T19:12:21.188Z,17.15
2018-03-14T19:14:49.417Z,22.77
2018-03-14T19:17:16.898Z,16.87
2018-03-14T19:19:44.358Z,14.18
2018-03-14T19:22:11.846Z,14.35
2018-03-14T19:24:40.105Z,22.37
2018-03-14T19:27:08.339Z,20.65
2018-03-14T19:29:35.798Z,16.75
2018-03-14T19:32:03.337Z,16.65
2018-03-14T19:34:30.806Z,21.17
2018-03-14T19:36:58.262Z,18.45
2018-03-14T19:39:25.757Z,15.80
2018-03-14T19:41:53.310Z,15.70
2018-03-14T19:44:20.873Z,14.20
2018-03-14T19:46:48.358Z,17.73
2018-03-14T19:49:16.585Z,19.17
2018-03-14T19:51:44.078Z,15.15
2018-03-14T19:54:12.331Z,16.42
2018-03-14T19:56:39.802Z,17.10
2018-03-14T19:59:07.359Z,13.90
2018-03-14T20:01:35.689Z,14.87
2018-03-14T20:04:03.202Z,16.12
2018-03-14T20:06:31.438Z,17.40
2018-03-14T20:08:58.970Z,14.80
2018-03-14T20:11:26.423Z,13.75
2018-03-14T20:13:53.884Z,16.80
2018-03-14T20:16:21.465Z,14.93
2018-03-14T20:18:48.942Z,13.90
2018-03-14T20:21:16.410Z,12.37
2018-03-14T20:23:43.962Z,11.57
2018-03-14T20:26:11.522Z,13.10
2018-03-14T20:28:38.985Z,14.55
2018-03-14T20:31:06.552Z,19.50
2018-03-14T20:33:34.777Z,14.35
2018-03-14T20:36:02.267Z,13.20
2018-03-14T20:38:29.728Z,12.25
2018-03-14T20:40:57.236Z,12.48
2018-03-14T20:43:24.693Z,13.73
2018-03-14T20:45:52.197Z,15.23
2018-03-14T20:48:19.754Z,11.12
2018-03-14T20:50:47.326Z,12.85
2018-03-14T20:53:14.801Z,19.20
2018-03-14T20:55:43.051Z,14.35
2018-03-14T20:58:10.622Z,12.43
2018-03-14T21:00:38.898Z,18.58
2018-03-14T21:03:06.361Z,18.70
2018-03-14T21:05:34.595Z,21.23
2018-03-14T21:08:02.070Z,16.77
2018-03-14T21:10:29.545Z,21.05
2018-03-14T21:12:57.798Z,18.17
2018-03-14T21:15:25.272Z,26.60
2018-03-14T21:17:52.788Z,22.95
2018-03-14T21:20:20.269Z,26.27
2018-03-14T21:22:47.758Z,28.95
2018-03-14T21:25:16.006Z,23.95
2018-03-14T21:27:43.482Z,25.40
2018-03-14T21:30:11.749Z,28.30
2018-03-14T21:32:39.302Z,29.48
2018-03-14T21:35:06.854Z,34.08
2018-03-14T21:37:34.371Z,31.12
2018-03-14T21:40:01.832Z,26.10
2018-03-14T21:42:29.301Z,28.98
2018-03-14T21:44:57.410Z,26.35
2018-03-14T21:47:24.883Z,25.25
2018-03-14T21:49:53.133Z,29.87
2018-03-14T21:52:20.594Z,24.77
2018-03-14T21:54:48.062Z,22.42
2018-03-14T21:57:19.037Z,23.90
2018-03-14T21:59:46.608Z,22.90
2018-03-14T22:02:14.017Z,22.00
2018-03-14T22:04:42.271Z,20.65
2018-03-14T22:07:09.738Z,19.52
2018-03-14T22:09:37.289Z,22.45
2018-03-14T22:12:04.786Z,20.80
2018-03-14T22:14:33.045Z,24.60
2018-03-14T22:17:01.272Z,28.23
2018-03-14T22:19:28.745Z,25.77
2018-03-14T22:21:56.309Z,21.50
2018-03-14T22:24:23.771Z,22.83
2018-03-14T22:26:51.240Z,31.33
2018-03-14T22:29:19.488Z,25.08
2018-03-14T22:31:47.061Z,22.55
2018-03-14T22:34:14.526Z,23.55
2018-03-14T22:36:42.073Z,24.65
2018-03-14T22:39:09.531Z,16.85
2018-03-14T22:41:37.086Z,20.40
2018-03-14T22:44:04.650Z,17.70
2018-03-14T22:46:32.206Z,21.35
2018-03-14T22:48:59.765Z,18.52
2018-03-14T22:51:27.229Z,15.52
2018-03-14T22:53:54.790Z,18.75
2018-03-14T22:56:22.350Z,17.98
2018-03-14T22:58:49.810Z,18.98
2018-03-14T23:01:17.269Z,15.00
2018-03-14T23:03:45.525Z,20.05
2018-03-14T23:06:13.043Z,20.37
2018-03-14T23:08:40.553Z,22.17
2018-03-14T23:11:08.821Z,25.50
2018-03-14T23:13:36.418Z,16.42
2018-03-14T23:16:03.880Z,18.10
2018-03-14T23:18:31.362Z,21.90
2018-03-14T23:20:58.845Z,22.05
2018-03-14T23:23:26.402Z,22.40
2018-03-14T23:25:53.974Z,17.58
2018-03-14T23:28:21.429Z,19.52
2018-03-14T23:30:49.039Z,26.75
2018-03-14T23:33:16.543Z,19.73
2018-03-14T23:35:44.010Z,20.80
2018-03-14T23:38:12.287Z,21.42
2018-03-14T23:40:40.599Z,25.48
2018-03-14T23:43:08.106Z,22.13
2018-03-14T23:45:35.585Z,20.25
2018-03-14T23:48:03.809Z,22.33
2018-03-14T23:50:31.334Z,26.17
2018-03-14T23:52:58.918Z,21.42
2018-03-14T23:55:26.374Z,19.02
2018-03-14T23:57:53.849Z,20.12
